sensor_id;sensor_type;location;lat;lon;timestamp;P1;durP1;ratioP1;P2;durP2;ratioP2
9763;SDS011;4921;43.214;27.936;2023-03-01T00:00:54;4.03;;;3.70;;
9763;SDS011;4921;43.214;27.936;2023-03-01T00:03:26;3.90;;;3.50;;
9763;SDS011;4921;43.214;27.936;2023-03-01T00:05:55;4.30;;;3.90;;
9763;SDS011;4921;43.214;27.936;2023-03-01T00:08:21;3.97;;;3.50;;
9763;SDS011;4921;43.214;27.936;2023-03-01T00:10:48;3.27;;;3.07;;
9763;SDS011;4921;43.214;27.936;2023-03-01T00:13:15;3.40;;;3.10;;
9763;SDS011;4921;43.214;27.936;2023-03-01T00:15:42;3.40;;;3.20;;
9763;SDS011;4921;43.214;27.936;2023-03-01T00:18:09;3.90;;;3.50;;
9763;SDS011;4921;43.214;27.936;2023-03-01T00:20:36;4.30;;;3.90;;
9763;SDS011;4921;43.214;27.936;2023-03-01T00:23:04;3.87;;;3.47;;
9763;SDS011;4921;43.214;27.936;2023-03-01T00:25:31;4.37;;;4.00;;
9763;SDS011;4921;43.214;27.936;2023-03-01T00:27:58;5.00;;;4.23;;
9763;SDS011;4921;43.214;27.936;2023-03-01T00:30:25;4.77;;;3.93;;
9763;SDS011;4921;43.214;27.936;2023-03-01T00:32:52;4.93;;;4.53;;
9763;SDS011;4921;43.214;27.936;2023-03-01T00:35:19;6.40;;;5.50;;
9763;SDS011;4921;43.214;27.936;2023-03-01T00:37:48;6.00;;;5.37;;
9763;SDS011;4921;43.214;27.936;2023-03-01T00:40:24;5.20;;;4.60;;
9763;SDS011;4921;43.214;27.936;2023-03-01T00:42:51;5.77;;;4.80;;
9763;SDS011;4921;43.214;27.936;2023-03-01T00:45:18;4.97;;;4.20;;
9763;SDS011;4921;43.214;27.936;2023-03-01T00:47:45;4.77;;;4.27;;
9763;SDS011;4921;43.214;27.936;2023-03-01T00:50:12;4.70;;;4.30;;
9763;SDS011;4921;43.214;27.936;2023-03-01T00:52:39;4.70;;;4.30;;
9763;SDS011;4921;43.214;27.936;2023-03-01T00:55:06;4.40;;;3.90;;
9763;SDS011;4921;43.214;27.936;2023-03-01T00:57:35;4.10;;;3.70;;
9763;SDS011;4921;43.214;27.936;2023-03-01T01:00:03;3.60;;;3.30;;
9763;SDS011;4921;43.214;27.936;2023-03-01T01:02:32;4.07;;;3.67;;
9763;SDS011;4921;43.214;27.936;2023-03-01T01:04:59;3.63;;;3.33;;
9763;SDS011;4921;43.214;27.936;2023-03-01T01:07:26;4.23;;;3.13;;
9763;SDS011;4921;43.214;27.936;2023-03-01T01:09:53;4.47;;;3.70;;
9763;SDS011;4921;43.214;27.936;2023-03-01T01:12:20;4.03;;;3.60;;
9763;SDS011;4921;43.214;27.936;2023-03-01T01:14:48;4.10;;;3.70;;
9763;SDS011;4921;43.214;27.936;2023-03-01T01:17:15;4.07;;;3.77;;
9763;SDS011;4921;43.214;27.936;2023-03-01T01:19:42;5.90;;;4.23;;
9763;SDS011;4921;43.214;27.936;2023-03-01T01:22:09;4.87;;;4.47;;
9763;SDS011;4921;43.214;27.936;2023-03-01T01:24:36;4.53;;;4.13;;
9763;SDS011;4921;43.214;27.936;2023-03-01T01:27:03;4.83;;;4.40;;
9763;SDS011;4921;43.214;27.936;2023-03-01T01:29:30;5.50;;;4.97;;
9763;SDS011;4921;43.214;27.936;2023-03-01T01:31:59;5.33;;;4.83;;
9763;SDS011;4921;43.214;27.936;2023-03-01T01:34:26;5.17;;;4.47;;
9763;SDS011;4921;43.214;27.936;2023-03-01T01:36:53;7.13;;;5.63;;
9763;SDS011;4921;43.214;27.936;2023-03-01T01:39:20;6.40;;;5.10;;
9763;SDS011;4921;43.214;27.936;2023-03-01T01:41:48;6.33;;;5.60;;
9763;SDS011;4921;43.214;27.936;2023-03-01T01:44:16;5.83;;;5.00;;
9763;SDS011;4921;43.214;27.936;2023-03-01T01:46:46;7.00;;;5.17;;
9763;SDS011;4921;43.214;27.936;2023-03-01T01:49:28;7.20;;;5.53;;
9763;SDS011;4921;43.214;27.936;2023-03-01T01:52:06;6.20;;;5.60;;
9763;SDS011;4921;43.214;27.936;2023-03-01T01:54:39;9.07;;;6.07;;
9763;SDS011;4921;43.214;27.936;2023-03-01T01:57:11;7.13;;;6.10;;
9763;SDS011;4921;43.214;27.936;2023-03-01T01:59:43;7.23;;;5.77;;
9763;SDS011;4921;43.214;27.936;2023-03-01T02:02:14;6.93;;;5.93;;
9763;SDS011;4921;43.214;27.936;2023-03-01T02:04:43;7.27;;;6.53;;
9763;SDS011;4921;43.214;27.936;2023-03-01T02:07:11;7.00;;;6.30;;
9763;SDS011;4921;43.214;27.936;2023-03-01T02:09:42;7.00;;;6.27;;
9763;SDS011;4921;43.214;27.936;2023-03-01T02:12:13;7.17;;;6.40;;
9763;SDS011;4921;43.214;27.936;2023-03-01T02:14:40;8.20;;;6.83;;
9763;SDS011;4921;43.214;27.936;2023-03-01T02:17:07;8.17;;;7.30;;
9763;SDS011;4921;43.214;27.936;2023-03-01T02:19:39;7.50;;;6.70;;
9763;SDS011;4921;43.214;27.936;2023-03-01T02:22:20;8.30;;;7.33;;
9763;SDS011;4921;43.214;27.936;2023-03-01T02:24:53;8.40;;;7.50;;
9763;SDS011;4921;43.214;27.936;2023-03-01T02:27:33;10.77;;;6.70;;
9763;SDS011;4921;43.214;27.936;2023-03-01T02:30:07;8.63;;;7.73;;
9763;SDS011;4921;43.214;27.936;2023-03-01T02:32:38;11.63;;;8.50;;
9763;SDS011;4921;43.214;27.936;2023-03-01T02:35:07;9.80;;;8.60;;
9763;SDS011;4921;43.214;27.936;2023-03-01T02:37:35;8.80;;;7.90;;
9763;SDS011;4921;43.214;27.936;2023-03-01T02:40:03;10.07;;;8.83;;
9763;SDS011;4921;43.214;27.936;2023-03-01T02:42:39;10.97;;;8.50;;
9763;SDS011;4921;43.214;27.936;2023-03-01T02:45:14;9.30;;;8.37;;
9763;SDS011;4921;43.214;27.936;2023-03-01T02:47:41;10.13;;;8.27;;
9763;SDS011;4921;43.214;27.936;2023-03-01T02:50:12;9.73;;;8.60;;
9763;SDS011;4921;43.214;27.936;2023-03-01T02:53:06;9.60;;;8.40;;
9763;SDS011;4921;43.214;27.936;2023-03-01T02:55:37;9.90;;;8.90;;
9763;SDS011;4921;43.214;27.936;2023-03-01T02:58:04;10.97;;;9.47;;
9763;SDS011;4921;43.214;27.936;2023-03-01T03:00:34;12.40;;;9.73;;
9763;SDS011;4921;43.214;27.936;2023-03-01T03:03:05;11.50;;;10.10;;
9763;SDS011;4921;43.214;27.936;2023-03-01T03:05:33;9.73;;;8.73;;
9763;SDS011;4921;43.214;27.936;2023-03-01T03:08:01;11.93;;;9.83;;
9763;SDS011;4921;43.214;27.936;2023-03-01T03:10:31;11.33;;;10.17;;
9763;SDS011;4921;43.214;27.936;2023-03-01T03:13:01;13.60;;;10.07;;
9763;SDS011;4921;43.214;27.936;2023-03-01T03:15:31;13.00;;;9.80;;
9763;SDS011;4921;43.214;27.936;2023-03-01T03:18:01;12.00;;;9.67;;
9763;SDS011;4921;43.214;27.936;2023-03-01T03:20:31;10.37;;;9.30;;
9763;SDS011;4921;43.214;27.936;2023-03-01T03:22:58;10.93;;;9.83;;
9763;SDS011;4921;43.214;27.936;2023-03-01T03:25:26;10.63;;;9.50;;
9763;SDS011;4921;43.214;27.936;2023-03-01T03:27:55;12.37;;;10.20;;
9763;SDS011;4921;43.214;27.936;2023-03-01T03:30:24;12.93;;;10.40;;
9763;SDS011;4921;43.214;27.936;2023-03-01T03:32:53;11.93;;;10.10;;
9763;SDS011;4921;43.214;27.936;2023-03-01T03:35:22;14.77;;;10.47;;
9763;SDS011;4921;43.214;27.936;2023-03-01T03:37:50;11.80;;;10.20;;
9763;SDS011;4921;43.214;27.936;2023-03-01T03:40:32;13.57;;;10.67;;
9763;SDS011;4921;43.214;27.936;2023-03-01T03:43:00;12.10;;;10.00;;
9763;SDS011;4921;43.214;27.936;2023-03-01T03:45:28;15.33;;;11.23;;
9763;SDS011;4921;43.214;27.936;2023-03-01T03:47:59;15.17;;;11.50;;
9763;SDS011;4921;43.214;27.936;2023-03-01T03:50:27;13.70;;;11.60;;
9763;SDS011;4921;43.214;27.936;2023-03-01T03:52:53;13.23;;;11.63;;
9763;SDS011;4921;43.214;27.936;2023-03-01T03:55:20;13.83;;;11.37;;
9763;SDS011;4921;43.214;27.936;2023-03-01T03:57:48;14.60;;;12.20;;
9763;SDS011;4921;43.214;27.936;2023-03-01T04:00:17;12.13;;;10.90;;
9763;SDS011;4921;43.214;27.936;2023-03-01T04:02:46;13.80;;;11.10;;
9763;SDS011;4921;43.214;27.936;2023-03-01T04:05:15;12.73;;;11.30;;
9763;SDS011;4921;43.214;27.936;2023-03-01T04:07:44;15.53;;;12.33;;
9763;SDS011;4921;43.214;27.936;2023-03-01T04:10:12;14.83;;;11.83;;
9763;SDS011;4921;43.214;27.936;2023-03-01T04:12:43;14.53;;;11.30;;
9763;SDS011;4921;43.214;27.936;2023-03-01T04:15:11;14.43;;;12.63;;
9763;SDS011;4921;43.214;27.936;2023-03-01T04:17:41;15.17;;;13.10;;
9763;SDS011;4921;43.214;27.936;2023-03-01T04:20:10;16.27;;;12.70;;
9763;SDS011;4921;43.214;27.936;2023-03-01T04:22:39;15.60;;;12.47;;
9763;SDS011;4921;43.214;27.936;2023-03-01T04:25:07;14.87;;;12.10;;
9763;SDS011;4921;43.214;27.936;2023-03-01T04:27:39;17.10;;;12.80;;
9763;SDS011;4921;43.214;27.936;2023-03-01T04:30:07;19.33;;;13.83;;
9763;SDS011;4921;43.214;27.936;2023-03-01T04:32:34;13.43;;;11.13;;
9763;SDS011;4921;43.214;27.936;2023-03-01T04:35:01;16.20;;;12.27;;
9763;SDS011;4921;43.214;27.936;2023-03-01T04:37:29;21.17;;;12.90;;
9763;SDS011;4921;43.214;27.936;2023-03-01T04:39:58;14.13;;;11.80;;
9763;SDS011;4921;43.214;27.936;2023-03-01T04:42:25;15.53;;;12.50;;
9763;SDS011;4921;43.214;27.936;2023-03-01T04:44:52;13.60;;;11.47;;
9763;SDS011;4921;43.214;27.936;2023-03-01T04:47:19;14.63;;;12.37;;
9763;SDS011;4921;43.214;27.936;2023-03-01T04:49:45;14.90;;;12.37;;
9763;SDS011;4921;43.214;27.936;2023-03-01T04:52:12;14.87;;;11.90;;
9763;SDS011;4921;43.214;27.936;2023-03-01T04:54:39;14.33;;;11.50;;
9763;SDS011;4921;43.214;27.936;2023-03-01T04:57:07;13.07;;;11.00;;
9763;SDS011;4921;43.214;27.936;2023-03-01T04:59:35;13.07;;;11.20;;
9763;SDS011;4921;43.214;27.936;2023-03-01T05:02:02;15.20;;;11.80;;
9763;SDS011;4921;43.214;27.936;2023-03-01T05:04:29;13.70;;;11.30;;
9763;SDS011;4921;43.214;27.936;2023-03-01T05:06:57;13.47;;;11.27;;
9763;SDS011;4921;43.214;27.936;2023-03-01T05:09:24;12.70;;;11.40;;
9763;SDS011;4921;43.214;27.936;2023-03-01T05:11:51;14.43;;;11.20;;
9763;SDS011;4921;43.214;27.936;2023-03-01T05:14:19;13.53;;;11.53;;
9763;SDS011;4921;43.214;27.936;2023-03-01T05:16:46;15.93;;;11.53;;
9763;SDS011;4921;43.214;27.936;2023-03-01T05:19:13;15.03;;;10.93;;
9763;SDS011;4921;43.214;27.936;2023-03-01T05:21:41;13.27;;;11.87;;
9763;SDS011;4921;43.214;27.936;2023-03-01T05:24:22;15.77;;;11.27;;
9763;SDS011;4921;43.214;27.936;2023-03-01T05:26:49;13.17;;;10.70;;
9763;SDS011;4921;43.214;27.936;2023-03-01T05:29:19;14.80;;;11.53;;
9763;SDS011;4921;43.214;27.936;2023-03-01T05:31:50;11.83;;;10.63;;
9763;SDS011;4921;43.214;27.936;2023-03-01T05:34:18;14.33;;;12.17;;
9763;SDS011;4921;43.214;27.936;2023-03-01T05:36:48;15.07;;;11.57;;
9763;SDS011;4921;43.214;27.936;2023-03-01T05:39:16;15.73;;;11.33;;
9763;SDS011;4921;43.214;27.936;2023-03-01T05:41:43;15.37;;;11.57;;
9763;SDS011;4921;43.214;27.936;2023-03-01T05:44:10;11.77;;;10.20;;
9763;SDS011;4921;43.214;27.936;2023-03-01T05:46:38;13.50;;;10.70;;
9763;SDS011;4921;43.214;27.936;2023-03-01T05:49:05;12.87;;;11.30;;
9763;SDS011;4921;43.214;27.936;2023-03-01T05:51:32;12.37;;;10.53;;
9763;SDS011;4921;43.214;27.936;2023-03-01T05:53:59;14.10;;;11.00;;
9763;SDS011;4921;43.214;27.936;2023-03-01T05:56:26;12.67;;;10.83;;
9763;SDS011;4921;43.214;27.936;2023-03-01T05:58:54;12.27;;;10.90;;
9763;SDS011;4921;43.214;27.936;2023-03-01T06:01:21;15.73;;;11.53;;
9763;SDS011;4921;43.214;27.936;2023-03-01T06:03:49;14.43;;;10.40;;
9763;SDS011;4921;43.214;27.936;2023-03-01T06:06:16;12.40;;;10.40;;
9763;SDS011;4921;43.214;27.936;2023-03-01T06:08:43;14.07;;;10.67;;
9763;SDS011;4921;43.214;27.936;2023-03-01T06:11:10;13.33;;;10.17;;
9763;SDS011;4921;43.214;27.936;2023-03-01T06:13:37;15.67;;;9.93;;
9763;SDS011;4921;43.214;27.936;2023-03-01T06:16:04;13.63;;;9.83;;
9763;SDS011;4921;43.214;27.936;2023-03-01T06:18:32;10.93;;;9.83;;
9763;SDS011;4921;43.214;27.936;2023-03-01T06:21:00;14.87;;;10.30;;
9763;SDS011;4921;43.214;27.936;2023-03-01T06:23:27;14.03;;;10.40;;
9763;SDS011;4921;43.214;27.936;2023-03-01T06:25:54;12.00;;;10.77;;
9763;SDS011;4921;43.214;27.936;2023-03-01T06:28:21;12.53;;;10.93;;
9763;SDS011;4921;43.214;27.936;2023-03-01T06:30:49;14.87;;;10.70;;
9763;SDS011;4921;43.214;27.936;2023-03-01T06:33:16;12.73;;;9.80;;
9763;SDS011;4921;43.214;27.936;2023-03-01T06:35:45;13.17;;;10.40;;
9763;SDS011;4921;43.214;27.936;2023-03-01T06:38:13;12.10;;;10.27;;
9763;SDS011;4921;43.214;27.936;2023-03-01T06:40:42;12.40;;;11.10;;
9763;SDS011;4921;43.214;27.936;2023-03-01T06:43:09;13.83;;;10.40;;
9763;SDS011;4921;43.214;27.936;2023-03-01T06:45:36;14.63;;;11.00;;
9763;SDS011;4921;43.214;27.936;2023-03-01T06:48:04;12.67;;;10.23;;
9763;SDS011;4921;43.214;27.936;2023-03-01T06:50:31;12.57;;;10.60;;
9763;SDS011;4921;43.214;27.936;2023-03-01T06:52:59;12.77;;;10.90;;
9763;SDS011;4921;43.214;27.936;2023-03-01T06:55:28;14.00;;;11.20;;
9763;SDS011;4921;43.214;27.936;2023-03-01T06:57:55;12.37;;;11.03;;
9763;SDS011;4921;43.214;27.936;2023-03-01T07:00:22;12.87;;;10.50;;
9763;SDS011;4921;43.214;27.936;2023-03-01T07:02:50;14.70;;;11.03;;
9763;SDS011;4921;43.214;27.936;2023-03-01T07:05:17;12.73;;;11.33;;
9763;SDS011;4921;43.214;27.936;2023-03-01T07:07:44;15.40;;;11.67;;
9763;SDS011;4921;43.214;27.936;2023-03-01T07:10:11;14.07;;;11.47;;
9763;SDS011;4921;43.214;27.936;2023-03-01T07:12:40;15.57;;;11.53;;
9763;SDS011;4921;43.214;27.936;2023-03-01T07:15:08;17.30;;;12.07;;
9763;SDS011;4921;43.214;27.936;2023-03-01T07:17:36;13.40;;;12.00;;
9763;SDS011;4921;43.214;27.936;2023-03-01T07:20:03;12.20;;;10.77;;
9763;SDS011;4921;43.214;27.936;2023-03-01T07:22:30;15.63;;;11.30;;
9763;SDS011;4921;43.214;27.936;2023-03-01T07:24:57;14.27;;;11.60;;
9763;SDS011;4921;43.214;27.936;2023-03-01T07:27:24;11.67;;;10.47;;
9763;SDS011;4921;43.214;27.936;2023-03-01T07:29:53;13.93;;;11.50;;
9763;SDS011;4921;43.214;27.936;2023-03-01T07:32:19;14.20;;;11.60;;
9763;SDS011;4921;43.214;27.936;2023-03-01T07:34:46;13.93;;;12.10;;
9763;SDS011;4921;43.214;27.936;2023-03-01T07:37:13;14.57;;;11.73;;
9763;SDS011;4921;43.214;27.936;2023-03-01T07:39:40;14.63;;;12.03;;
9763;SDS011;4921;43.214;27.936;2023-03-01T07:42:07;18.17;;;11.93;;
9763;SDS011;4921;43.214;27.936;2023-03-01T07:44:34;17.70;;;12.13;;
9763;SDS011;4921;43.214;27.936;2023-03-01T07:47:04;13.47;;;12.00;;
9763;SDS011;4921;43.214;27.936;2023-03-01T07:49:31;18.63;;;11.97;;
9763;SDS011;4921;43.214;27.936;2023-03-01T07:51:58;13.93;;;12.27;;
9763;SDS011;4921;43.214;27.936;2023-03-01T07:54:25;15.77;;;12.03;;
9763;SDS011;4921;43.214;27.936;2023-03-01T07:56:52;15.33;;;12.10;;
9763;SDS011;4921;43.214;27.936;2023-03-01T07:59:19;14.87;;;12.40;;
9763;SDS011;4921;43.214;27.936;2023-03-01T08:01:48;18.97;;;13.03;;
9763;SDS011;4921;43.214;27.936;2023-03-01T08:04:17;15.67;;;12.80;;
9763;SDS011;4921;43.214;27.936;2023-03-01T08:06:44;13.53;;;11.63;;
9763;SDS011;4921;43.214;27.936;2023-03-01T08:09:11;17.97;;;11.93;;
9763;SDS011;4921;43.214;27.936;2023-03-01T08:11:38;15.37;;;12.27;;
9763;SDS011;4921;43.214;27.936;2023-03-01T08:14:05;14.20;;;11.70;;
9763;SDS011;4921;43.214;27.936;2023-03-01T08:16:33;15.67;;;12.40;;
9763;SDS011;4921;43.214;27.936;2023-03-01T08:19:03;15.53;;;12.43;;
9763;SDS011;4921;43.214;27.936;2023-03-01T08:21:32;16.37;;;12.13;;
9763;SDS011;4921;43.214;27.936;2023-03-01T08:23:59;16.30;;;11.50;;
9763;SDS011;4921;43.214;27.936;2023-03-01T08:26:27;12.30;;;10.70;;
9763;SDS011;4921;43.214;27.936;2023-03-01T08:28:54;14.70;;;12.50;;
9763;SDS011;4921;43.214;27.936;2023-03-01T08:31:22;14.90;;;11.30;;
9763;SDS011;4921;43.214;27.936;2023-03-01T08:33:51;15.40;;;11.97;;
9763;SDS011;4921;43.214;27.936;2023-03-01T08:36:21;12.93;;;10.93;;
9763;SDS011;4921;43.214;27.936;2023-03-01T08:38:50;14.90;;;12.13;;
9763;SDS011;4921;43.214;27.936;2023-03-01T08:41:18;12.10;;;10.50;;
9763;SDS011;4921;43.214;27.936;2023-03-01T08:43:45;12.30;;;10.97;;
9763;SDS011;4921;43.214;27.936;2023-03-01T08:46:13;13.13;;;11.03;;
9763;SDS011;4921;43.214;27.936;2023-03-01T08:48:40;16.10;;;12.87;;
9763;SDS011;4921;43.214;27.936;2023-03-01T08:51:09;15.87;;;11.50;;
9763;SDS011;4921;43.214;27.936;2023-03-01T08:53:37;14.67;;;12.37;;
9763;SDS011;4921;43.214;27.936;2023-03-01T08:56:07;13.33;;;11.63;;
9763;SDS011;4921;43.214;27.936;2023-03-01T08:58:34;15.90;;;12.43;;
9763;SDS011;4921;43.214;27.936;2023-03-01T09:01:06;16.37;;;13.13;;
9763;SDS011;4921;43.214;27.936;2023-03-01T09:03:34;13.77;;;12.30;;
9763;SDS011;4921;43.214;27.936;2023-03-01T09:06:01;13.87;;;12.47;;
9763;SDS011;4921;43.214;27.936;2023-03-01T09:08:28;17.10;;;12.23;;
9763;SDS011;4921;43.214;27.936;2023-03-01T09:10:55;14.17;;;12.77;;
9763;SDS011;4921;43.214;27.936;2023-03-01T09:13:24;15.80;;;13.13;;
9763;SDS011;4921;43.214;27.936;2023-03-01T09:15:52;17.57;;;14.30;;
9763;SDS011;4921;43.214;27.936;2023-03-01T09:18:19;18.40;;;13.13;;
9763;SDS011;4921;43.214;27.936;2023-03-01T09:20:46;16.70;;;13.80;;
9763;SDS011;4921;43.214;27.936;2023-03-01T09:23:13;19.00;;;13.93;;
9763;SDS011;4921;43.214;27.936;2023-03-01T09:25:40;19.30;;;14.53;;
9763;SDS011;4921;43.214;27.936;2023-03-01T09:28:07;17.83;;;14.60;;
9763;SDS011;4921;43.214;27.936;2023-03-01T09:30:37;16.67;;;13.80;;
9763;SDS011;4921;43.214;27.936;2023-03-01T09:33:04;18.57;;;14.33;;
9763;SDS011;4921;43.214;27.936;2023-03-01T09:35:31;15.10;;;13.50;;
9763;SDS011;4921;43.214;27.936;2023-03-01T09:37:58;17.63;;;14.70;;
9763;SDS011;4921;43.214;27.936;2023-03-01T09:40:25;19.23;;;14.47;;
9763;SDS011;4921;43.214;27.936;2023-03-01T09:42:55;17.07;;;15.07;;
9763;SDS011;4921;43.214;27.936;2023-03-01T09:45:33;21.17;;;15.17;;
9763;SDS011;4921;43.214;27.936;2023-03-01T09:48:03;20.10;;;14.30;;
9763;SDS011;4921;43.214;27.936;2023-03-01T09:50:35;15.83;;;14.13;;
9763;SDS011;4921;43.214;27.936;2023-03-01T09:53:05;20.73;;;14.73;;
9763;SDS011;4921;43.214;27.936;2023-03-01T09:55:37;17.00;;;12.43;;
9763;SDS011;4921;43.214;27.936;2023-03-01T09:58:19;17.57;;;12.27;;
9763;SDS011;4921;43.214;27.936;2023-03-01T10:00:58;15.07;;;12.30;;
9763;SDS011;4921;43.214;27.936;2023-03-01T10:03:33;17.17;;;11.20;;
9763;SDS011;4921;43.214;27.936;2023-03-01T10:06:06;19.13;;;11.10;;
9763;SDS011;4921;43.214;27.936;2023-03-01T10:08:40;13.00;;;11.07;;
9763;SDS011;4921;43.214;27.936;2023-03-01T10:11:21;13.97;;;10.60;;
9763;SDS011;4921;43.214;27.936;2023-03-01T10:13:52;13.60;;;11.00;;
9763;SDS011;4921;43.214;27.936;2023-03-01T10:16:27;11.40;;;9.93;;
9763;SDS011;4921;43.214;27.936;2023-03-01T10:19:12;11.63;;;10.03;;
9763;SDS011;4921;43.214;27.936;2023-03-01T10:21:46;13.00;;;10.73;;
9763;SDS011;4921;43.214;27.936;2023-03-01T10:24:17;12.00;;;10.63;;
9763;SDS011;4921;43.214;27.936;2023-03-01T10:26:52;11.93;;;9.37;;
9763;SDS011;4921;43.214;27.936;2023-03-01T10:29:23;11.60;;;10.10;;
9763;SDS011;4921;43.214;27.936;2023-03-01T10:31:57;19.67;;;9.60;;
9763;SDS011;4921;43.214;27.936;2023-03-01T10:34:30;12.73;;;9.57;;
9763;SDS011;4921;43.214;27.936;2023-03-01T10:37:00;13.10;;;9.63;;
9763;SDS011;4921;43.214;27.936;2023-03-01T10:39:34;12.30;;;9.00;;
9763;SDS011;4921;43.214;27.936;2023-03-01T10:42:02;12.90;;;9.47;;
9763;SDS011;4921;43.214;27.936;2023-03-01T10:44:35;10.10;;;8.50;;
9763;SDS011;4921;43.214;27.936;2023-03-01T10:47:12;13.00;;;9.37;;
9763;SDS011;4921;43.214;27.936;2023-03-01T10:49:54;10.53;;;9.00;;
9763;SDS011;4921;43.214;27.936;2023-03-01T10:52:24;11.77;;;8.67;;
9763;SDS011;4921;43.214;27.936;2023-03-01T10:54:54;13.40;;;9.53;;
9763;SDS011;4921;43.214;27.936;2023-03-01T11:00:19;9.60;;;8.70;;
9763;SDS011;4921;43.214;27.936;2023-03-01T11:02:50;13.40;;;9.70;;
9763;SDS011;4921;43.214;27.936;2023-03-01T11:05:29;13.73;;;9.77;;
9763;SDS011;4921;43.214;27.936;2023-03-01T11:07:59;15.03;;;9.67;;
9763;SDS011;4921;43.214;27.936;2023-03-01T11:10:28;12.43;;;10.47;;
9763;SDS011;4921;43.214;27.936;2023-03-01T11:13:07;13.80;;;10.43;;
9763;SDS011;4921;43.214;27.936;2023-03-01T11:15:40;11.20;;;10.00;;
9763;SDS011;4921;43.214;27.936;2023-03-01T11:18:17;11.40;;;9.33;;
9763;SDS011;4921;43.214;27.936;2023-03-01T11:20:48;9.90;;;9.00;;
9763;SDS011;4921;43.214;27.936;2023-03-01T11:23:18;11.27;;;9.37;;
9763;SDS011;4921;43.214;27.936;2023-03-01T11:25:47;14.73;;;9.90;;
9763;SDS011;4921;43.214;27.936;2023-03-01T11:28:19;10.20;;;9.20;;
9763;SDS011;4921;43.214;27.936;2023-03-01T11:30:48;10.50;;;9.13;;
9763;SDS011;4921;43.214;27.936;2023-03-01T11:33:23;10.10;;;8.97;;
9763;SDS011;4921;43.214;27.936;2023-03-01T11:36:02;9.00;;;8.10;;
9763;SDS011;4921;43.214;27.936;2023-03-01T11:38:34;8.87;;;7.97;;
9763;SDS011;4921;43.214;27.936;2023-03-01T11:41:04;9.27;;;7.67;;
9763;SDS011;4921;43.214;27.936;2023-03-01T11:43:33;9.70;;;7.27;;
9763;SDS011;4921;43.214;27.936;2023-03-01T11:49:08;7.57;;;6.77;;
9763;SDS011;4921;43.214;27.936;2023-03-01T11:51:51;8.23;;;7.47;;
9763;SDS011;4921;43.214;27.936;2023-03-01T11:54:28;12.17;;;7.07;;
9763;SDS011;4921;43.214;27.936;2023-03-01T11:57:05;9.20;;;8.00;;
9763;SDS011;4921;43.214;27.936;2023-03-01T11:59:47;8.00;;;7.30;;
9763;SDS011;4921;43.214;27.936;2023-03-01T12:02:39;9.93;;;7.40;;
9763;SDS011;4921;43.214;27.936;2023-03-01T12:05:19;10.10;;;7.50;;
9763;SDS011;4921;43.214;27.936;2023-03-01T12:07:54;7.80;;;7.03;;
9763;SDS011;4921;43.214;27.936;2023-03-01T12:10:28;8.50;;;7.70;;
9763;SDS011;4921;43.214;27.936;2023-03-01T12:13:15;8.83;;;7.10;;
9763;SDS011;4921;43.214;27.936;2023-03-01T12:18:56;8.13;;;7.17;;
9763;SDS011;4921;43.214;27.936;2023-03-01T12:21:48;8.27;;;7.47;;
9763;SDS011;4921;43.214;27.936;2023-03-01T12:24:41;7.80;;;6.97;;
9763;SDS011;4921;43.214;27.936;2023-03-01T12:27:36;8.23;;;7.43;;
9763;SDS011;4921;43.214;27.936;2023-03-01T12:30:25;8.67;;;7.17;;
9763;SDS011;4921;43.214;27.936;2023-03-01T12:33:01;8.50;;;7.33;;
9763;SDS011;4921;43.214;27.936;2023-03-01T12:35:47;7.53;;;6.73;;
9763;SDS011;4921;43.214;27.936;2023-03-01T12:38:37;7.33;;;6.50;;
9763;SDS011;4921;43.214;27.936;2023-03-01T12:41:19;7.70;;;7.00;;
9763;SDS011;4921;43.214;27.936;2023-03-01T12:44:01;6.97;;;6.27;;
9763;SDS011;4921;43.214;27.936;2023-03-01T12:46:41;9.47;;;7.17;;
9763;SDS011;4921;43.214;27.936;2023-03-01T12:49:20;7.20;;;5.97;;
9763;SDS011;4921;43.214;27.936;2023-03-01T12:51:51;6.50;;;5.97;;
9763;SDS011;4921;43.214;27.936;2023-03-01T12:54:25;6.93;;;6.17;;
9763;SDS011;4921;43.214;27.936;2023-03-01T12:56:55;7.57;;;6.13;;
9763;SDS011;4921;43.214;27.936;2023-03-01T12:59:28;9.93;;;6.07;;
9763;SDS011;4921;43.214;27.936;2023-03-01T13:02:04;8.17;;;6.13;;
9763;SDS011;4921;43.214;27.936;2023-03-01T13:04:43;7.30;;;6.57;;
9763;SDS011;4921;43.214;27.936;2023-03-01T13:07:23;6.27;;;5.67;;
9763;SDS011;4921;43.214;27.936;2023-03-01T13:09:58;5.87;;;5.37;;
9763;SDS011;4921;43.214;27.936;2023-03-01T13:15:33;7.07;;;6.47;;
9763;SDS011;4921;43.214;27.936;2023-03-01T13:18:02;8.33;;;6.73;;
9763;SDS011;4921;43.214;27.936;2023-03-01T13:20:31;7.67;;;5.47;;
9763;SDS011;4921;43.214;27.936;2023-03-01T13:23:02;6.23;;;5.63;;
9763;SDS011;4921;43.214;27.936;2023-03-01T13:25:33;6.60;;;5.90;;
9763;SDS011;4921;43.214;27.936;2023-03-01T13:31:54;6.30;;;5.70;;
9763;SDS011;4921;43.214;27.936;2023-03-01T13:37:27;7.80;;;5.90;;
9763;SDS011;4921;43.214;27.936;2023-03-01T13:40:02;8.27;;;6.13;;
9763;SDS011;4921;43.214;27.936;2023-03-01T13:42:44;7.63;;;6.03;;
9763;SDS011;4921;43.214;27.936;2023-03-01T13:45:15;11.60;;;6.40;;
9763;SDS011;4921;43.214;27.936;2023-03-01T13:47:47;7.20;;;5.77;;
9763;SDS011;4921;43.214;27.936;2023-03-01T13:50:20;8.53;;;6.00;;
9763;SDS011;4921;43.214;27.936;2023-03-01T13:52:50;11.10;;;6.57;;
9763;SDS011;4921;43.214;27.936;2023-03-01T13:55:23;6.37;;;5.77;;
9763;SDS011;4921;43.214;27.936;2023-03-01T13:57:54;11.10;;;5.60;;
9763;SDS011;4921;43.214;27.936;2023-03-01T14:00:31;8.43;;;6.20;;
9763;SDS011;4921;43.214;27.936;2023-03-01T14:03:08;12.03;;;7.10;;
9763;SDS011;4921;43.214;27.936;2023-03-01T14:05:38;8.33;;;6.40;;
9763;SDS011;4921;43.214;27.936;2023-03-01T14:08:17;10.63;;;6.83;;
9763;SDS011;4921;43.214;27.936;2023-03-01T14:10:49;7.43;;;6.60;;
9763;SDS011;4921;43.214;27.936;2023-03-01T14:13:35;9.20;;;7.20;;
9763;SDS011;4921;43.214;27.936;2023-03-01T14:16:16;8.00;;;6.73;;
9763;SDS011;4921;43.214;27.936;2023-03-01T14:19:00;9.03;;;6.37;;
9763;SDS011;4921;43.214;27.936;2023-03-01T14:21:41;8.37;;;7.30;;
9763;SDS011;4921;43.214;27.936;2023-03-01T14:24:15;10.07;;;7.23;;
9763;SDS011;4921;43.214;27.936;2023-03-01T14:26:45;7.63;;;6.60;;
9763;SDS011;4921;43.214;27.936;2023-03-01T14:29:25;10.90;;;7.10;;
9763;SDS011;4921;43.214;27.936;2023-03-01T14:31:53;9.40;;;7.13;;
9763;SDS011;4921;43.214;27.936;2023-03-01T14:34:24;11.07;;;7.40;;
9763;SDS011;4921;43.214;27.936;2023-03-01T14:36:51;11.00;;;8.30;;
9763;SDS011;4921;43.214;27.936;2023-03-01T14:39:19;9.87;;;7.53;;
9763;SDS011;4921;43.214;27.936;2023-03-01T14:41:50;13.43;;;7.90;;
9763;SDS011;4921;43.214;27.936;2023-03-01T14:44:19;9.80;;;7.30;;
9763;SDS011;4921;43.214;27.936;2023-03-01T14:46:51;8.53;;;6.47;;
9763;SDS011;4921;43.214;27.936;2023-03-01T14:49:22;13.80;;;8.73;;
9763;SDS011;4921;43.214;27.936;2023-03-01T14:51:52;29.80;;;10.27;;
9763;SDS011;4921;43.214;27.936;2023-03-01T14:54:26;8.20;;;6.57;;
9763;SDS011;4921;43.214;27.936;2023-03-01T14:56:59;8.30;;;6.57;;
9763;SDS011;4921;43.214;27.936;2023-03-01T14:59:27;11.27;;;6.30;;
9763;SDS011;4921;43.214;27.936;2023-03-01T15:01:55;7.60;;;6.80;;
9763;SDS011;4921;43.214;27.936;2023-03-01T15:04:25;11.27;;;7.07;;
9763;SDS011;4921;43.214;27.936;2023-03-01T15:06:55;10.77;;;8.47;;
9763;SDS011;4921;43.214;27.936;2023-03-01T15:09:30;16.13;;;11.00;;
9763;SDS011;4921;43.214;27.936;2023-03-01T15:12:01;14.43;;;9.90;;
9763;SDS011;4921;43.214;27.936;2023-03-01T15:18:04;10.83;;;7.30;;
9763;SDS011;4921;43.214;27.936;2023-03-01T15:20:41;9.07;;;6.87;;
9763;SDS011;4921;43.214;27.936;2023-03-01T15:23:16;8.87;;;7.13;;
9763;SDS011;4921;43.214;27.936;2023-03-01T15:25:45;10.50;;;7.77;;
9763;SDS011;4921;43.214;27.936;2023-03-01T15:28:20;11.27;;;7.77;;